createdAt,value
2018-04-11T00:01:54.938Z,26.27
2018-04-11T00:04:23.232Z,27.63
2018-04-11T00:06:51.909Z,25.97
2018-04-11T00:09:20.385Z,26.93
2018-04-11T00:11:50.112Z,27.63
2018-04-11T00:14:19.295Z,27.80
2018-04-11T00:16:48.497Z,25.63
2018-04-11T00:19:16.348Z,28.73
2018-04-11T00:21:44.527Z,26.50
2018-04-11T00:24:12.788Z,26.70
2018-04-11T00:26:41.162Z,27.67
2018-04-11T00:29:09.047Z,26.87
2018-04-11T00:31:37.317Z,26.70
2018-04-11T00:34:06.401Z,26.87
2018-04-11T00:36:34.386Z,26.03
2018-04-11T00:39:02.552Z,26.90
2018-04-11T00:41:30.628Z,28.93
2018-04-11T00:43:58.918Z,28.13
2018-04-11T00:46:27.938Z,27.50
2018-04-11T00:48:57.099Z,27.30
2018-04-11T00:51:26.200Z,28.70
2018-04-11T00:53:55.086Z,28.77
2018-04-11T00:56:23.261Z,26.70
2018-04-11T00:58:51.531Z,27.63
2018-04-11T01:01:20.095Z,26.60
2018-04-11T01:03:48.277Z,25.87
2018-04-11T01:06:16.843Z,26.97
2018-04-11T01:08:45.056Z,25.67
2018-04-11T01:11:13.720Z,27.83
2018-04-11T01:13:42.111Z,26.03
2018-04-11T01:16:09.960Z,27.70
2018-04-11T01:18:38.214Z,27.23
2018-04-11T01:21:06.529Z,26.50
2018-04-11T01:23:35.383Z,25.13
2018-04-11T01:26:03.983Z,24.40
2018-04-11T01:28:31.857Z,26.23
2018-04-11T01:31:00.251Z,26.60
2018-04-11T01:33:29.225Z,25.07
2018-04-11T01:35:57.420Z,24.33
2018-04-11T01:38:26.717Z,25.30
2018-04-11T01:40:55.767Z,25.60
2018-04-11T01:43:23.960Z,25.93
2018-04-11T01:45:52.137Z,24.90
2018-04-11T01:48:20.653Z,27.20
2018-04-11T01:50:49.505Z,25.33
2018-04-11T01:53:17.889Z,26.10
2018-04-11T01:55:45.943Z,27.27
2018-04-11T01:58:14.232Z,26.80
2018-04-11T02:00:42.712Z,27.83
2018-04-11T02:03:10.892Z,27.70
2018-04-11T02:05:39.907Z,26.30
2018-04-11T02:08:08.877Z,29.17
2018-04-11T02:10:36.840Z,26.10
2018-04-11T02:13:04.812Z,28.67
2018-04-11T02:15:32.884Z,27.87
2018-04-11T02:18:01.163Z,29.10
2018-04-11T02:20:29.710Z,28.10
2018-04-11T02:22:58.008Z,29.70
2018-04-11T02:25:26.186Z,31.77
2018-04-11T02:27:54.054Z,30.27
2018-04-11T02:30:22.553Z,29.23
2018-04-11T02:32:51.493Z,29.00
2018-04-11T02:35:19.993Z,31.03
2018-04-11T02:37:48.160Z,29.30
2018-04-11T02:40:16.665Z,31.60
2018-04-11T02:42:44.839Z,30.37
2018-04-11T02:45:12.812Z,29.77
2018-04-11T02:47:40.883Z,32.13
2018-04-11T02:50:08.961Z,30.57
2018-04-11T02:52:37.227Z,32.33
2018-04-11T02:55:05.403Z,32.07
2018-04-11T02:57:34.392Z,31.40
2018-04-11T03:00:02.465Z,33.93
2018-04-11T03:02:30.433Z,34.87
2018-04-11T03:04:58.407Z,31.07
2018-04-11T03:07:26.375Z,33.07
2018-04-11T03:09:55.658Z,33.17
2018-04-11T03:12:23.838Z,37.13
2018-04-11T03:14:52.019Z,34.07
2018-04-11T03:17:21.852Z,36.40
2018-04-11T03:19:50.929Z,33.50
2018-04-11T03:22:19.093Z,36.47
2018-04-11T03:24:47.472Z,34.50
2018-04-11T03:27:15.651Z,34.07
2018-04-11T03:29:44.022Z,33.30
2018-04-11T03:32:12.167Z,34.70
2018-04-11T03:34:40.366Z,34.40
2018-04-11T03:37:08.237Z,35.93
2018-04-11T03:39:37.536Z,36.33
2018-04-11T03:42:05.646Z,34.30
2018-04-11T03:44:33.579Z,34.33
2018-04-11T03:47:01.891Z,35.87
2018-04-11T03:49:30.023Z,36.53
2018-04-11T03:51:58.607Z,35.53
2018-04-11T03:54:26.885Z,37.03
2018-04-11T03:56:55.059Z,38.70
2018-04-11T03:59:23.945Z,38.83
2018-04-11T04:01:52.102Z,39.03
2018-04-11T04:04:20.191Z,41.20
2018-04-11T04:06:48.502Z,37.30
2018-04-11T04:09:17.356Z,40.47
2018-04-11T04:11:45.536Z,39.07
2018-04-11T04:14:26.200Z,37.07
2018-04-11T04:17:06.050Z,40.73
2018-04-11T04:22:39.047Z,38.43
2018-04-11T04:25:07.022Z,44.07
2018-04-11T04:27:35.296Z,38.90
2018-04-11T04:30:03.263Z,38.83
2018-04-11T04:32:32.226Z,39.43
2018-04-11T04:35:00.491Z,38.70
2018-04-11T04:37:28.800Z,39.90
2018-04-11T04:39:57.161Z,37.27
2018-04-11T04:42:25.575Z,37.20
2018-04-11T04:44:54.549Z,39.00
2018-04-11T04:47:23.575Z,38.00
2018-04-11T04:49:51.894Z,37.30
2018-04-11T04:52:19.988Z,38.03
2018-04-11T04:54:48.061Z,39.93
2018-04-11T04:57:16.134Z,39.23
2018-04-11T04:59:44.104Z,37.17
2018-04-11T05:02:13.403Z,38.17
2018-04-11T05:04:41.782Z,38.80
2018-04-11T05:07:09.931Z,37.00
2018-04-11T05:09:38.044Z,39.40
2018-04-11T05:12:07.288Z,37.07
2018-04-11T05:14:35.392Z,36.90
2018-04-11T05:17:03.718Z,39.23
2018-04-11T05:19:32.382Z,36.40
2018-04-11T05:22:01.651Z,37.83
2018-04-11T05:24:30.072Z,39.03
2018-04-11T05:26:59.360Z,39.07
2018-04-11T05:29:28.859Z,36.67
2018-04-11T05:31:59.088Z,37.47
2018-04-11T05:34:28.372Z,39.83
2018-04-11T05:36:57.548Z,36.27
2018-04-11T05:39:25.723Z,38.33
2018-04-11T05:41:54.817Z,40.83
2018-04-11T05:44:24.537Z,37.33
2018-04-11T05:46:55.978Z,38.60
2018-04-11T05:49:24.378Z,36.73
2018-04-11T05:51:54.877Z,37.90
2018-04-11T05:54:23.578Z,35.40
2018-04-11T05:56:52.102Z,36.40
2018-04-11T05:59:20.737Z,38.37
2018-04-11T06:01:49.197Z,36.13
2018-04-11T06:04:17.639Z,37.43
2018-04-11T06:06:46.734Z,38.97
2018-04-11T06:09:15.365Z,33.93
2018-04-11T06:11:43.824Z,34.30
2018-04-11T06:14:13.222Z,35.43
2018-04-11T06:16:41.773Z,36.00
2018-04-11T06:19:11.254Z,34.67
2018-04-11T06:21:39.847Z,34.93
2018-04-11T06:24:08.695Z,38.00
2018-04-11T06:26:37.301Z,36.50
2018-04-11T06:29:25.235Z,33.83
2018-04-11T06:32:00.742Z,37.20
2018-04-11T06:34:29.641Z,36.37
2018-04-11T06:37:02.962Z,37.20
2018-04-11T06:39:33.742Z,34.77
2018-04-11T06:42:03.670Z,34.67
2018-04-11T06:44:35.562Z,37.57
2018-04-11T06:52:45.999Z,38.87
2018-04-11T06:55:16.747Z,33.83
2018-04-11T06:57:47.327Z,37.83
2018-04-11T07:00:15.840Z,36.80
2018-04-11T07:02:45.691Z,36.60
2018-04-11T07:05:14.960Z,34.93
2018-04-11T07:07:43.619Z,35.00
2018-04-11T07:10:12.896Z,33.73
2018-04-11T07:12:41.296Z,33.63
2018-04-11T07:15:09.683Z,32.80
2018-04-11T07:17:39.804Z,31.23
2018-04-11T07:20:07.978Z,31.43
2018-04-11T07:22:37.148Z,29.00
2018-04-11T07:25:05.320Z,30.73
2018-04-11T07:27:33.714Z,28.03
2018-04-11T07:30:02.032Z,29.67
2018-04-11T07:32:31.516Z,27.63
2018-04-11T07:35:00.625Z,26.53
2018-04-11T07:37:29.506Z,28.23
2018-04-11T07:39:58.162Z,26.17
2018-04-11T07:42:26.377Z,26.37
2018-04-11T07:44:55.533Z,26.50
2018-04-11T07:47:23.825Z,27.60
2018-04-11T07:49:52.135Z,27.57
2018-04-11T07:52:20.776Z,27.30
2018-04-11T07:54:49.181Z,27.97
2018-04-11T07:57:18.458Z,29.10
2018-04-11T07:59:46.620Z,28.20
2018-04-11T08:02:15.202Z,25.97
2018-04-11T08:04:43.913Z,25.33
2018-04-11T08:07:13.355Z,26.77
2018-04-11T08:09:42.005Z,25.70
2018-04-11T08:12:10.969Z,25.00
2018-04-11T08:14:39.180Z,23.37
2018-04-11T08:17:08.272Z,33.03
2018-04-11T08:19:37.834Z,24.80
2018-04-11T08:22:06.015Z,23.80
2018-04-11T08:24:34.223Z,24.37
2018-04-11T08:27:03.323Z,20.50
2018-04-11T08:29:32.427Z,22.07
2018-04-11T08:32:00.558Z,21.00
2018-04-11T08:34:30.459Z,22.97
2018-04-11T08:36:58.781Z,21.80
2018-04-11T08:39:28.447Z,20.90
2018-04-11T08:41:57.652Z,21.23
2018-04-11T08:44:26.142Z,20.63
2018-04-11T08:46:55.150Z,17.77
2018-04-11T08:49:25.237Z,17.50
2018-04-11T08:51:53.481Z,17.80
2018-04-11T08:54:21.912Z,17.57
2018-04-11T08:56:51.366Z,19.40
2018-04-11T08:59:19.753Z,16.37
2018-04-11T09:01:47.877Z,16.83
2018-04-11T09:04:16.983Z,18.90
2018-04-11T09:06:45.936Z,17.90
2018-04-11T09:09:14.214Z,16.20
2018-04-11T09:11:43.625Z,17.90
2018-04-11T09:14:12.172Z,16.30
2018-04-11T09:16:40.705Z,16.57
2018-04-11T09:19:10.207Z,16.23
2018-04-11T09:21:39.318Z,14.37
2018-04-11T09:24:08.793Z,15.53
2018-04-11T09:26:37.255Z,15.87
2018-04-11T09:29:05.724Z,14.63
2018-04-11T09:31:33.836Z,13.70
2018-04-11T09:34:01.790Z,13.60
2018-04-11T09:36:29.654Z,12.77
2018-04-11T09:38:57.741Z,11.03
2018-04-11T09:41:25.983Z,12.30
2018-04-11T09:43:54.419Z,14.23
2018-04-11T09:46:23.391Z,13.40
2018-04-11T09:48:52.540Z,14.93
2018-04-11T09:51:20.735Z,13.50
2018-04-11T09:53:49.858Z,47.57
2018-04-11T09:56:19.117Z,13.77
2018-04-11T09:58:47.001Z,13.03
2018-04-11T10:01:18.930Z,12.40
2018-04-11T10:03:46.963Z,13.10
2018-04-11T10:06:16.727Z,11.50
2018-04-11T10:08:46.260Z,13.27
2018-04-11T10:11:14.434Z,10.93
2018-04-11T10:13:42.736Z,11.80
2018-04-11T10:16:11.820Z,10.83
2018-04-11T10:18:40.884Z,11.70
2018-04-11T10:21:09.060Z,13.30
2018-04-11T10:23:37.460Z,13.00
2018-04-11T10:26:06.506Z,13.10
2018-04-11T10:28:35.082Z,17.80
2018-04-11T10:31:03.612Z,14.33
2018-04-11T10:33:32.040Z,13.33
2018-04-11T10:35:59.940Z,13.60
2018-04-11T10:38:27.941Z,13.23
2018-04-11T10:40:58.531Z,13.50
2018-04-11T10:43:27.125Z,13.80
2018-04-11T10:45:55.523Z,14.23
2018-04-11T10:48:25.239Z,14.57
2018-04-11T10:50:54.940Z,15.33
2018-04-11T10:53:22.961Z,15.03
2018-04-11T10:55:51.394Z,13.57
2018-04-11T10:58:19.930Z,13.00
2018-04-11T11:00:48.365Z,13.40
2018-04-11T11:03:17.332Z,15.10
2018-04-11T11:05:45.356Z,14.90
2018-04-11T11:08:13.614Z,15.13
2018-04-11T11:10:43.088Z,17.63
2018-04-11T11:13:12.167Z,16.40
2018-04-11T11:15:40.428Z,17.03
2018-04-11T11:18:09.018Z,15.63
2018-04-11T11:20:37.753Z,15.73
2018-04-11T11:23:07.436Z,16.40
2018-04-11T11:25:36.833Z,16.03
2018-04-11T11:28:05.085Z,16.80
2018-04-11T11:30:33.100Z,15.27
2018-04-11T11:33:02.176Z,18.20
2018-04-11T11:35:30.481Z,18.80
2018-04-11T11:37:59.603Z,12.47
2018-04-11T11:40:28.250Z,12.00
2018-04-11T11:42:57.590Z,10.90
2018-04-11T11:45:25.802Z,11.47
2018-04-11T11:47:54.255Z,12.63
2018-04-11T11:50:22.737Z,11.43
2018-04-11T11:52:51.041Z,12.30
2018-04-11T11:55:19.396Z,11.43
2018-04-11T11:57:47.593Z,12.10
2018-04-11T12:00:15.774Z,13.37
2018-04-11T12:02:43.927Z,15.57
2018-04-11T12:05:12.111Z,12.37
2018-04-11T12:07:40.496Z,12.23
2018-04-11T12:10:08.676Z,12.70
2018-04-11T12:12:37.697Z,13.77
2018-04-11T12:15:06.200Z,12.17
2018-04-11T12:17:34.405Z,12.83
2018-04-11T12:20:02.678Z,12.43
2018-04-11T12:22:30.960Z,10.87
2018-04-11T12:24:59.222Z,12.43
2018-04-11T12:27:27.724Z,12.27
2018-04-11T12:29:55.997Z,12.30
2018-04-11T12:32:24.946Z,13.70
2018-04-11T12:34:53.111Z,12.00
2018-04-11T12:37:21.563Z,12.87
2018-04-11T12:39:51.026Z,13.00
2018-04-11T12:42:19.317Z,14.00
2018-04-11T12:44:47.814Z,14.07
2018-04-11T12:47:17.233Z,13.00
2018-04-11T12:49:46.475Z,13.47
2018-04-11T12:52:15.188Z,12.30
2018-04-11T12:54:43.678Z,13.63
2018-04-11T12:57:12.436Z,15.77
2018-04-11T12:59:41.295Z,13.60
2018-04-11T13:02:09.794Z,15.20
2018-04-11T13:04:39.210Z,14.80
2018-04-11T13:07:07.514Z,14.70
2018-04-11T13:09:36.119Z,15.40
2018-04-11T13:12:05.487Z,16.77
2018-04-11T13:14:33.670Z,14.17
2018-04-11T13:17:02.212Z,15.10
2018-04-11T13:19:31.021Z,14.90
2018-04-11T13:21:59.313Z,14.57
2018-04-11T13:24:27.284Z,15.00
2018-04-11T13:26:55.682Z,14.47
2018-04-11T13:29:25.459Z,14.13
2018-04-11T13:31:54.053Z,16.97
2018-04-11T13:34:22.352Z,14.97
2018-04-11T13:36:51.429Z,15.80
2018-04-11T13:39:19.804Z,15.50
2018-04-11T13:41:48.383Z,14.53
2018-04-11T13:44:17.079Z,14.20
2018-04-11T13:46:45.214Z,13.70
2018-04-11T13:49:13.340Z,13.50
2018-04-11T13:51:42.529Z,13.87
2018-04-11T13:54:10.797Z,13.87
2018-04-11T13:56:38.872Z,18.70
2018-04-11T13:59:06.842Z,11.60
2018-04-11T14:01:35.743Z,11.10
2018-04-11T14:04:05.595Z,11.23
2018-04-11T14:06:33.921Z,18.17
2018-04-11T14:09:02.676Z,10.17
2018-04-11T14:11:31.083Z,10.90
2018-04-11T14:13:59.231Z,9.33
2018-04-11T14:16:27.421Z,16.50
2018-04-11T14:18:55.800Z,9.00
2018-04-11T14:21:24.200Z,10.80
2018-04-11T14:23:53.813Z,9.30
2018-04-11T14:26:23.296Z,9.30
2018-04-11T14:28:51.763Z,9.83
2018-04-11T14:31:20.247Z,11.03
2018-04-11T14:33:48.399Z,10.90
2018-04-11T14:36:16.920Z,10.33
2018-04-11T14:38:46.856Z,10.50
2018-04-11T14:41:16.256Z,9.97
2018-04-11T14:43:45.455Z,9.33
2018-04-11T14:46:15.742Z,10.60
2018-04-11T14:48:44.643Z,10.20
2018-04-11T14:51:13.639Z,10.27
2018-04-11T14:53:42.826Z,11.07
2018-04-11T14:56:10.897Z,10.00
2018-04-11T14:58:39.035Z,11.10
2018-04-11T15:01:07.972Z,10.90
2018-04-11T15:03:36.058Z,11.00
2018-04-11T15:06:05.672Z,11.17
2018-04-11T15:08:34.837Z,10.60
2018-04-11T15:11:03.122Z,9.60
2018-04-11T15:13:31.328Z,12.00
2018-04-11T15:15:59.815Z,10.60
2018-04-11T15:18:28.415Z,10.17
2018-04-11T15:20:57.421Z,10.63
2018-04-11T15:23:25.718Z,11.13
2018-04-11T15:25:54.223Z,10.90
2018-04-11T15:28:23.164Z,10.63
2018-04-11T15:30:51.340Z,9.97
2018-04-11T15:33:19.328Z,10.30
2018-04-11T15:35:47.578Z,10.93
2018-04-11T15:38:16.113Z,10.00
2018-04-11T15:40:45.220Z,12.47
2018-04-11T15:43:14.396Z,11.93
2018-04-11T15:45:43.596Z,8.13
2018-04-11T15:48:11.853Z,9.97
2018-04-11T15:50:40.239Z,10.10
2018-04-11T15:53:08.417Z,10.57
2018-04-11T15:55:38.730Z,10.00
2018-04-11T15:58:06.597Z,10.47
2018-04-11T16:00:34.671Z,9.77
2018-04-11T16:03:03.041Z,11.00
2018-04-11T16:05:31.196Z,10.00
2018-04-11T16:07:59.290Z,9.53
2018-04-11T16:10:27.154Z,10.20
2018-04-11T16:12:55.228Z,9.67
2018-04-11T16:15:24.459Z,10.30
2018-04-11T16:17:52.708Z,10.30
2018-04-11T16:20:20.977Z,10.40
2018-04-11T16:22:49.183Z,11.13
2018-04-11T16:25:17.842Z,9.90
2018-04-11T16:27:45.808Z,8.93
2018-04-11T16:30:14.057Z,10.43
2018-04-11T16:32:42.158Z,9.23
2018-04-11T16:35:10.330Z,11.20
2018-04-11T16:37:38.692Z,10.70
2018-04-11T16:40:06.797Z,9.50
2018-04-11T16:42:35.667Z,10.37
2018-04-11T16:45:03.746Z,10.60
2018-04-11T16:47:31.710Z,9.73
2018-04-11T16:49:59.780Z,12.93
2018-04-11T16:52:27.952Z,9.90
2018-04-11T16:54:55.920Z,9.67
2018-04-11T16:57:24.006Z,10.80
2018-04-11T16:59:52.732Z,11.20
2018-04-11T17:02:22.159Z,10.97
2018-04-11T17:04:50.401Z,11.13
2018-04-11T17:07:18.632Z,10.67
2018-04-11T17:09:46.600Z,22.60
2018-04-11T17:12:14.500Z,10.30
2018-04-11T17:14:43.527Z,10.37
2018-04-11T17:17:11.522Z,11.10
2018-04-11T17:19:39.709Z,13.27
2018-04-11T17:22:19.963Z,14.07
2018-04-11T17:24:59.912Z,15.40
2018-04-11T17:30:44.174Z,18.43
2018-04-11T17:33:12.247Z,18.77
2018-04-11T17:35:40.727Z,18.93
2018-04-11T17:38:08.598Z,14.90
2018-04-11T17:40:36.770Z,17.10
2018-04-11T17:43:04.949Z,15.70
2018-04-11T17:45:33.180Z,16.40
2018-04-11T17:48:01.187Z,14.73
2018-04-11T17:50:29.457Z,15.77
2018-04-11T17:52:57.599Z,14.98
2018-04-11T17:55:25.605Z,14.47
2018-04-11T17:57:53.927Z,14.57
2018-04-11T18:00:22.144Z,15.60
2018-04-11T18:02:50.327Z,14.87
2018-04-11T18:05:18.297Z,16.17
2018-04-11T18:07:46.162Z,15.37
2018-04-11T18:10:14.245Z,15.00
2018-04-11T18:12:42.203Z,16.40
2018-04-11T18:15:10.257Z,15.70
2018-04-11T18:17:38.142Z,15.83
2018-04-11T18:20:06.217Z,13.50
2018-04-11T18:22:34.456Z,15.27
2018-04-11T18:25:02.353Z,15.27
2018-04-11T18:27:30.529Z,15.60
2018-04-11T18:29:59.566Z,15.77
2018-04-11T18:32:27.488Z,17.23
2018-04-11T18:34:55.564Z,16.60
2018-04-11T18:37:24.964Z,15.07
2018-04-11T18:39:53.137Z,16.47
2018-04-11T18:42:24.001Z,17.00
2018-04-11T18:44:52.150Z,18.50
2018-04-11T18:47:20.268Z,18.90
2018-04-11T18:49:49.108Z,19.70
2018-04-11T18:52:17.181Z,18.73
2018-04-11T18:54:45.670Z,17.03
2018-04-11T18:57:13.938Z,17.60
2018-04-11T18:59:42.077Z,22.23
2018-04-11T19:02:10.691Z,22.80
2018-04-11T19:04:38.991Z,26.30
2018-04-11T19:07:07.862Z,24.53
2018-04-11T19:09:35.920Z,21.87
2018-04-11T19:12:04.308Z,23.03
2018-04-11T19:14:32.482Z,23.03
2018-04-11T19:17:00.548Z,23.73
2018-04-11T19:19:28.944Z,23.53
2018-04-11T19:21:58.022Z,24.67
2018-04-11T19:24:25.989Z,24.87
2018-04-11T19:26:54.023Z,24.53
2018-04-11T19:29:22.349Z,25.03
2018-04-11T19:31:50.713Z,25.70
2018-04-11T19:34:20.535Z,26.90
2018-04-11T19:36:48.908Z,28.03
2018-04-11T19:39:17.375Z,25.50
2018-04-11T19:41:45.352Z,28.70
2018-04-11T19:44:13.432Z,27.90
2018-04-11T19:46:42.487Z,26.10
2018-04-11T19:49:10.702Z,26.90
2018-04-11T19:51:38.671Z,27.23
2018-04-11T19:54:06.847Z,26.77
2018-04-11T19:56:35.002Z,26.93
2018-04-11T19:59:03.394Z,27.37
2018-04-11T20:01:31.673Z,25.67
2018-04-11T20:03:59.725Z,26.80
2018-04-11T20:06:27.910Z,26.60
2018-04-11T20:08:57.303Z,27.30
2018-04-11T20:11:25.278Z,25.83
2018-04-11T20:13:53.519Z,24.73
2018-04-11T20:16:21.627Z,26.97
2018-04-11T20:18:49.902Z,25.57
2018-04-11T20:21:18.053Z,27.17
2018-04-11T20:23:46.291Z,24.00
2018-04-11T20:26:14.502Z,28.03
2018-04-11T20:28:42.593Z,24.90
2018-04-11T20:31:10.774Z,27.50
2018-04-11T20:33:39.062Z,29.00
2018-04-11T20:36:08.549Z,29.57
2018-04-11T20:38:36.727Z,28.93
2018-04-11T20:41:04.793Z,29.90
2018-04-11T20:43:32.733Z,28.47
2018-04-11T20:46:01.142Z,29.07
2018-04-11T20:48:29.537Z,28.03
2018-04-11T20:50:58.207Z,28.60
2018-04-11T20:53:26.276Z,28.77
2018-04-11T20:55:54.466Z,28.77
2018-04-11T20:58:23.423Z,27.50
2018-04-11T21:00:51.702Z,29.43
2018-04-11T21:03:20.608Z,29.00
2018-04-11T21:05:48.678Z,29.13
2018-04-11T21:08:16.964Z,30.77
2018-04-11T21:10:45.112Z,30.90
2018-04-11T21:13:13.306Z,31.90
2018-04-11T21:15:41.753Z,27.03
2018-04-11T21:18:09.724Z,27.00
2018-04-11T21:20:37.717Z,27.53
2018-04-11T21:23:06.008Z,28.07
2018-04-11T21:25:34.133Z,26.27
2018-04-11T21:28:02.456Z,27.67
2018-04-11T21:30:30.694Z,26.73
2018-04-11T21:32:58.699Z,27.80
2018-04-11T21:35:26.653Z,27.83
2018-04-11T21:37:54.839Z,27.13
2018-04-11T21:40:23.298Z,29.37
2018-04-11T21:42:52.188Z,27.60
2018-04-11T21:45:20.343Z,28.37
2018-04-11T21:47:48.763Z,29.60
2018-04-11T21:50:16.876Z,27.90
2018-04-11T21:52:45.219Z,30.50
2018-04-11T21:55:14.204Z,31.37
2018-04-11T21:57:42.476Z,29.97
2018-04-11T22:00:11.563Z,29.33
2018-04-11T22:02:39.633Z,28.43
2018-04-11T22:05:07.609Z,28.23
2018-04-11T22:07:35.873Z,25.37
2018-04-11T22:10:03.953Z,25.70
2018-04-11T22:12:32.843Z,23.27
2018-04-11T22:15:00.702Z,23.93
2018-04-11T22:17:29.083Z,23.93
2018-04-11T22:19:57.125Z,26.57
2018-04-11T22:22:25.633Z,24.67
2018-04-11T22:24:53.617Z,23.40
2018-04-11T22:27:22.806Z,25.60
2018-04-11T22:29:50.850Z,25.27
2018-04-11T22:32:19.033Z,24.73
2018-04-11T22:34:46.913Z,24.10
2018-04-11T22:37:14.993Z,22.83
2018-04-11T22:39:43.053Z,23.73
2018-04-11T22:42:11.638Z,21.83
2018-04-11T22:44:40.635Z,22.70
2018-04-11T22:47:08.879Z,24.37
2018-04-11T22:49:37.792Z,23.13
2018-04-11T22:52:05.868Z,22.97
2018-04-11T22:54:34.054Z,22.40
2018-04-11T22:57:02.313Z,23.10
2018-04-11T22:59:30.588Z,21.13
2018-04-11T23:01:58.969Z,23.00
2018-04-11T23:04:26.838Z,23.70
2018-04-11T23:06:56.451Z,22.37
2018-04-11T23:09:24.514Z,20.60
2018-04-11T23:11:52.583Z,20.60
2018-04-11T23:14:20.862Z,21.60
2018-04-11T23:16:48.829Z,20.73
2018-04-11T23:19:17.108Z,19.30
2018-04-11T23:21:45.368Z,20.23
2018-04-11T23:24:13.449Z,19.27
2018-04-11T23:26:41.418Z,18.83
2018-04-11T23:29:09.602Z,19.70
2018-04-11T23:31:37.769Z,18.73
2018-04-11T23:34:05.738Z,17.50
2018-04-11T23:36:33.703Z,18.27
2018-04-11T23:39:01.778Z,20.03
2018-04-11T23:41:30.093Z,19.10
2018-04-11T23:43:58.222Z,18.17
2018-04-11T23:46:26.372Z,17.30
2018-04-11T23:48:54.469Z,17.80
2018-04-11T23:51:22.642Z,17.47
2018-04-11T23:53:50.723Z,16.50
2018-04-11T23:56:18.672Z,16.50
2018-04-11T23:58:46.746Z,16.70
